Flight Track Log - Related Links

Times and Time Zones

All times are in EDT time to prevent confusion due to time zone crossing. See the N4698A flight status page for this flight to view local times or setup timezone preferences in your user account.

Time Position Orientation Groundspeed Altitude Reporting Facility
EDT Latitude Longitude Course Direction KTS MPH feet Rate Location/Type
Sun 11:54:24 AM 41.2092 -74.9328 102° East 173 199 9,600  Level New York Center
Sun 11:55:24 AM 41.1989 -74.8658 102° East 178 205 9,600  Level New York Center
Sun 11:56:24 AM 41.1947 -74.8078 95° East 178 205 9,600  Level New York Center
Sun 11:57:24 AM 41.1864 -74.7411 99° East 173 199 9,600  Level New York Center
Sun 11:58:24 AM 41.1800 -74.6828 98° East 167 192 9,600  Level New York Center
Sun 11:59:24 AM 41.1719 -74.6133 99° East 167 192 9,600 -50 Level New York Center
Sun 12:00:24 PM 41.1675 -74.5608 96° East 167 192 9,500 -50 Descending New York Center
Sun 12:01:24 PM 41.1592 -74.4914 99° East 162 186 9,500 64 Level New York Center
Sun 12:01:58 PM 41.1500 -74.4500 106° East 170 196 9,600 68 Climbing New York TRACON
Sun 12:02:52 PM 41.1500 -74.4000 90° East 171 197 9,600 -70 Level New York TRACON
Sun 12:03:24 PM 41.1444 -74.3667 102° East 162 186 9,500 -65 Descending New York Center
Sun 12:04:24 PM 41.1378 -74.3111 99° East 162 186 9,500  Level New York Center
Sun 12:05:24 PM 41.1294 -74.2419 99° East 162 186 9,500  Level New York Center
Sun 12:06:24 PM 41.1228 -74.1811 98° East 162 186 9,500 -64 Level New York Center
Sun 12:06:58 PM 41.1167 -74.1500 105° East 174 200 9,400 -447 Descending New York TRACON
Sun 12:07:58 PM 41.1167 -74.0667 90° East 189 217 8,800 -750 Descending New York TRACON
Sun 12:08:58 PM 41.1167 -74.0000 90° East 199 229 7,900 -950 Descending New York TRACON
Sun 12:09:58 PM 41.1167 -73.9333 90° East 204 235 6,900 -1,000 Descending New York TRACON
Sun 12:10:52 PM 41.1333 -73.8667 72° East 195 224 6,000 -1,250 Descending New York TRACON
Sun 12:11:58 PM 41.1667 -73.8000 56° Northeast 199 229 4,400 -1,400 Descending New York TRACON
Sun 12:12:52 PM 41.2000 -73.7667 37° Northeast 200 230 3,200 -789 Descending New York TRACON
Sun 12:13:52 PM 41.2333 -73.7333 37° Northeast 168 193 2,900 -450 Descending New York TRACON
Sun 12:14:52 PM 41.2167 -73.7833 246° West 174 200 2,300 -300 Descending New York TRACON
Sun 12:15:52 PM 41.1667 -73.7667 166° South 153 176 2,300 -150 Level New York TRACON
Sun 12:16:52 PM 41.1333 -73.7500 159° South 148 170 2,000 -579 Descending New York TRACON
Sun 12:17:46 PM 41.1000 -73.7333 159° South 130 150 1,200 -889 Descending New York TRACON
Sun 12:19:00 PM 41.0667 -73.7000 90° East  Level FlightAware Approximate
Sun 12:26:00 PM 41.0669 -73.7076 90° East  Level Estimated
Sun 12:27:00 PM 41.0667 -73.7000 90° East  Level FlightAware Approximate
Sun 12:28:00 PM 41.0669 -73.7076 90° East  Level Estimated

Login

Don't have an account? Register now (free) for customized features, flight alerts, and more!